Time;durP1;ratioP1;P1;durP2;ratioP2;P2;SDS_P1;SDS_P2;PMS_P1;PMS_P2;Temp;Humidity;BMP_temperature;BMP_pressure;BME280_temperature;BME280_humidity;BME280_pressure;Samples;Min_cycle;Max_cycle;Signal;HPM_P1;HPM_P2
2020/12/27 00:02:18;;;;;;;40.13;20.58;;;-0.60;91.30;;;;;;4992239;28;20061;-83
2020/12/27 00:04:44;;;;;;;37.80;21.25;;;-0.60;91.40;;;;;;4990704;28;20038;-84
2020/12/27 00:07:16;;;;;;;36.53;21.10;;;-0.60;91.30;;;;;;4990926;28;20026;-84
2020/12/27 00:09:44;;;;;;;36.10;20.63;;;-0.50;91.40;;;;;;4990426;28;20088;-84
2020/12/27 00:12:11;;;;;;;34.80;19.60;;;-0.50;91.40;;;;;;4990919;28;20027;-84
2020/12/27 00:14:37;;;;;;;34.88;19.40;;;-0.50;91.30;;;;;;4991791;28;20482;-83
2020/12/27 00:17:12;;;;;;;34.58;18.85;;;-0.50;91.10;;;;;;4992163;28;20026;-84
2020/12/27 00:19:40;;;;;;;35.25;18.70;;;-0.50;91.10;;;;;;4989975;28;20030;-84
2020/12/27 00:22:07;;;;;;;45.67;21.92;;;-0.50;91.20;;;;;;4989718;28;20030;-85
2020/12/27 00:24:33;;;;;;;31.90;18.25;;;-0.50;91.00;;;;;;4972566;28;20060;-84
2020/12/27 00:26:59;;;;;;;32.70;17.77;;;-0.50;91.00;;;;;;4989308;28;20490;-84
2020/12/27 00:29:25;;;;;;;34.70;18.50;;;-0.60;91.20;;;;;;4992593;28;20041;-85
2020/12/27 00:31:52;;;;;;;36.53;17.48;;;-0.60;91.30;;;;;;4994027;28;20030;-84
2020/12/27 00:34:18;;;;;;;33.05;17.42;;;-0.60;91.10;;;;;;5009343;28;20026;-85
2020/12/27 00:36:44;;;;;;;37.38;17.60;;;-0.60;91.20;;;;;;4998374;28;20066;-84
2020/12/27 00:39:10;;;;;;;40.38;18.30;;;-0.70;91.20;;;;;;4992976;28;20054;-85
2020/12/27 00:41:37;;;;;;;32.70;17.60;;;-0.70;91.40;;;;;;4991680;28;20050;-85
2020/12/27 00:44:03;;;;;;;34.40;18.83;;;-0.70;91.40;;;;;;4992584;28;20019;-85
2020/12/27 00:46:29;;;;;;;31.15;16.73;;;-0.70;91.40;;;;;;4991064;28;20034;-85
2020/12/27 00:48:55;;;;;;;25.75;14.98;;;-0.70;91.50;;;;;;4989045;28;20018;-85
2020/12/27 00:51:22;;;;;;;31.20;16.48;;;-0.70;91.50;;;;;;4972676;28;20110;-85
2020/12/27 00:53:47;;;;;;;41.38;16.02;;;-0.80;91.20;;;;;;4990607;28;20023;-84
2020/12/27 00:56:13;;;;;;;31.00;16.55;;;-0.80;91.40;;;;;;4992565;28;20040;-85
2020/12/27 00:58:40;;;;;;;30.48;16.27;;;-0.80;91.40;;;;;;4989653;28;20014;-84
2020/12/27 01:01:06;;;;;;;36.45;16.42;;;-0.70;91.40;;;;;;4973911;28;20031;-84
2020/12/27 01:03:33;;;;;;;31.10;16.70;;;-0.70;91.30;;;;;;4988744;28;20045;-85
2020/12/27 01:05:59;;;;;;;36.00;16.65;;;-0.70;91.30;;;;;;4989050;28;20093;-84
2020/12/27 01:08:27;;;;;;;30.92;16.60;;;-0.80;91.30;;;;;;4991361;28;20030;-85
2020/12/27 01:10:52;;;;;;;32.17;17.73;;;-0.80;91.30;;;;;;4990172;28;20014;-85
2020/12/27 01:13:18;;;;;;;33.40;16.73;;;-0.80;91.40;;;;;;4988620;28;20084;-84
2020/12/27 01:15:43;;;;;;;33.85;15.75;;;-0.80;91.30;;;;;;4988830;28;20500;-84
2020/12/27 01:18:09;;;;;;;34.90;17.23;;;-0.80;91.20;;;;;;4989084;28;20113;-85
2020/12/27 01:20:35;;;;;;;33.25;17.10;;;-0.90;91.20;;;;;;4990128;28;20379;-84
2020/12/27 01:23:02;;;;;;;32.90;16.42;;;-0.90;91.10;;;;;;4974736;28;20026;-85
2020/12/27 01:25:27;;;;;;;37.35;18.10;;;-0.90;91.10;;;;;;4989248;28;20117;-85
2020/12/27 01:27:53;;;;;;;33.65;16.58;;;-0.90;91.20;;;;;;4988131;28;20101;-82
2020/12/27 01:30:19;;;;;;;33.72;18.67;;;-0.90;91.20;;;;;;4988473;28;20113;-84
2020/12/27 01:32:44;;;;;;;32.70;17.13;;;-0.80;90.90;;;;;;4983839;28;20066;-84
2020/12/27 01:35:10;;;;;;;30.55;16.17;;;-0.90;91.10;;;;;;4991191;28;20039;-84
2020/12/27 01:37:36;;;;;;;33.65;17.05;;;-0.90;91.10;;;;;;4971758;28;20026;-85
2020/12/27 01:40:02;;;;;;;34.20;17.95;;;-1.00;90.90;;;;;;4988853;28;20022;-84
2020/12/27 01:42:27;;;;;;;39.40;17.58;;;-1.00;91.00;;;;;;4989427;28;20113;-84
2020/12/27 01:44:53;;;;;;;27.70;16.67;;;-0.90;91.10;;;;;;4988152;28;20438;-84
2020/12/27 01:47:23;;;;;;;43.30;16.38;;;-1.00;91.00;;;;;;4991030;28;20033;-85
2020/12/27 01:49:50;;;;;;;29.97;16.77;;;-1.00;90.90;;;;;;4989776;28;20537;-85
2020/12/27 01:52:17;;;;;;;32.08;16.45;;;-1.00;90.80;;;;;;4989398;28;20066;-84
2020/12/27 01:54:43;;;;;;;35.15;16.42;;;-1.00;90.90;;;;;;4988123;28;20604;-84
2020/12/27 01:57:15;;;;;;;33.45;16.75;;;-1.00;90.90;;;;;;4983780;28;20076;-84
2020/12/27 01:59:41;;;;;;;28.10;16.30;;;-1.10;90.80;;;;;;4988832;28;20034;-83
2020/12/27 02:02:08;;;;;;;28.90;16.13;;;-1.00;91.00;;;;;;4991115;28;20390;-84
2020/12/27 02:04:34;;;;;;;30.88;16.75;;;-1.00;90.90;;;;;;4988678;28;20501;-84
2020/12/27 02:07:04;;;;;;;31.90;15.77;;;-1.00;90.90;;;;;;4988477;28;20049;-85
2020/12/27 02:09:30;;;;;;;28.90;15.73;;;-1.00;91.10;;;;;;4988996;28;20142;-85
2020/12/27 02:12:10;;;;;;;30.48;15.60;;;-1.10;90.70;;;;;;4989146;28;20034;-84
2020/12/27 02:14:37;;;;;;;31.40;16.08;;;-1.10;91.20;;;;;;4991572;28;20130;-84
2020/12/27 02:17:05;;;;;;;35.28;16.08;;;-1.10;90.90;;;;;;4994490;28;20019;-84
2020/12/27 02:19:30;;;;;;;32.92;16.10;;;-1.10;91.00;;;;;;4992627;28;20495;-85
2020/12/27 02:21:56;;;;;;;30.67;14.90;;;-1.20;90.90;;;;;;4991976;28;20070;-85
2020/12/27 02:24:22;;;;;;;33.65;15.40;;;-1.20;91.00;;;;;;4992328;28;20030;-84
2020/12/27 02:27:02;;;;;;;27.25;15.05;;;-1.20;91.10;;;;;;4993264;28;20102;-84
2020/12/27 02:29:28;;;;;;;26.35;14.35;;;-1.20;91.10;;;;;;4993827;28;20040;-85
2020/12/27 02:31:55;;;;;;;32.92;15.85;;;-1.30;91.10;;;;;;4992707;28;20046;-85
2020/12/27 02:34:22;;;;;;;28.05;14.85;;;-1.30;91.10;;;;;;4993530;28;20034;-84
2020/12/27 02:36:48;;;;;;;29.73;15.98;;;-1.30;91.10;;;;;;4991544;28;20501;-85
2020/12/27 02:39:16;;;;;;;32.00;15.90;;;-1.30;91.10;;;;;;4991874;28;20049;-85
2020/12/27 02:41:42;;;;;;;29.15;15.00;;;-1.30;91.00;;;;;;4991430;28;20035;-85
2020/12/27 02:44:08;;;;;;;30.42;14.65;;;-1.20;91.00;;;;;;4994005;28;20505;-84
2020/12/27 02:46:35;;;;;;;31.42;16.15;;;-1.20;90.80;;;;;;4992696;28;20034;-84
2020/12/27 02:49:01;;;;;;;29.25;15.10;;;-1.30;90.90;;;;;;4991104;28;20053;-84
2020/12/27 02:51:28;;;;;;;25.00;14.07;;;-1.30;90.80;;;;;;4990771;28;20141;-84
2020/12/27 02:53:54;;;;;;;27.75;13.82;;;-1.30;91.00;;;;;;4990629;28;20023;-84
2020/12/27 02:56:22;;;;;;;29.48;14.38;;;-1.30;91.00;;;;;;4976137;28;20023;-84
2020/12/27 02:58:48;;;;;;;28.63;15.88;;;-1.30;91.00;;;;;;4992924;28;20061;-85
2020/12/27 03:01:14;;;;;;;33.80;14.63;;;-1.30;90.80;;;;;;4991197;28;20100;-85
2020/12/27 03:03:40;;;;;;;27.85;13.18;;;-1.30;90.90;;;;;;4991472;28;20481;-84
2020/12/27 03:06:06;;;;;;;25.45;12.50;;;-1.20;90.90;;;;;;4991183;28;20019;-84
2020/12/27 03:08:32;;;;;;;29.52;14.82;;;-1.30;90.80;;;;;;4992626;28;20080;-84
2020/12/27 03:10:57;;;;;;;25.95;13.93;;;-1.30;90.70;;;;;;4975300;28;20026;-84
2020/12/27 03:13:23;;;;;;;28.02;14.30;;;-1.40;90.80;;;;;;4990578;28;20065;-85
2020/12/27 03:15:52;;;;;;;30.65;14.27;;;-1.40;90.70;;;;;;4993150;28;20072;-84
2020/12/27 03:18:18;;;;;;;27.17;13.02;;;-1.30;90.80;;;;;;5000393;28;20086;-84
2020/12/27 03:20:44;;;;;;;27.58;13.57;;;-1.30;90.80;;;;;;5010566;28;20105;-85
2020/12/27 03:23:10;;;;;;;29.92;13.32;;;-1.40;90.60;;;;;;4998364;28;20080;-85
2020/12/27 03:25:36;;;;;;;28.20;12.77;;;-1.40;90.60;;;;;;4988720;28;20435;-86
2020/12/27 03:28:02;;;;;;;24.38;12.25;;;-1.40;90.60;;;;;;4991802;28;20030;-86
2020/12/27 03:30:28;;;;;;;27.17;13.38;;;-1.40;90.70;;;;;;4990220;28;20377;-85
2020/12/27 03:32:54;;;;;;;22.23;11.77;;;-1.50;90.70;;;;;;4974701;28;20483;-85
2020/12/27 03:35:19;;;;;;;25.65;12.20;;;-1.40;90.70;;;;;;4976247;28;20057;-85
2020/12/27 03:37:45;;;;;;;24.35;12.77;;;-1.40;90.60;;;;;;5006672;28;20043;-85
2020/12/27 03:40:11;;;;;;;27.88;12.65;;;-1.40;90.80;;;;;;4991757;28;20452;-85
2020/12/27 03:42:36;;;;;;;23.25;12.52;;;-1.50;90.50;;;;;;4990820;28;20084;-85
2020/12/27 03:45:03;;;;;;;25.83;12.00;;;-1.50;90.60;;;;;;4991992;28;20019;-83
2020/12/27 03:47:28;;;;;;;23.88;13.40;;;-1.50;90.60;;;;;;4992691;28;20503;-84
2020/12/27 03:49:54;;;;;;;25.08;12.30;;;-1.50;90.60;;;;;;4991008;28;20015;-85
2020/12/27 03:52:20;;;;;;;25.13;12.65;;;-1.50;90.30;;;;;;4991167;28;20080;-83
2020/12/27 03:54:45;;;;;;;26.05;13.15;;;-1.50;90.50;;;;;;4990419;28;20098;-84
2020/12/27 03:57:11;;;;;;;31.25;14.32;;;-1.60;90.40;;;;;;4992837;28;20030;-85
2020/12/27 03:59:37;;;;;;;25.13;11.90;;;-1.60;90.40;;;;;;4990684;28;20041;-84
2020/12/27 04:02:02;;;;;;;25.48;12.20;;;-1.60;90.40;;;;;;4991391;28;20045;-84
2020/12/27 04:04:28;;;;;;;22.95;11.95;;;-1.60;90.30;;;;;;4989742;28;20034;-84
2020/12/27 04:06:54;;;;;;;25.85;13.23;;;-1.60;90.20;;;;;;4990079;28;20355;-85
2020/12/27 04:09:19;;;;;;;28.85;12.07;;;-1.60;90.10;;;;;;4988966;28;20026;-83
2020/12/27 04:11:45;;;;;;;27.83;12.10;;;-1.60;90.30;;;;;;4976505;28;20058;-84
2020/12/27 04:14:11;;;;;;;33.58;13.75;;;-1.60;90.30;;;;;;4993347;28;20057;-84
2020/12/27 04:16:36;;;;;;;24.17;11.85;;;-1.60;90.20;;;;;;4991525;28;20280;-84
2020/12/27 04:19:02;;;;;;;27.80;13.43;;;-1.70;90.20;;;;;;4991568;28;20018;-84
2020/12/27 04:21:28;;;;;;;25.92;13.35;;;-1.70;90.20;;;;;;4991153;28;20042;-84
2020/12/27 04:23:54;;;;;;;27.55;13.90;;;-1.70;90.30;;;;;;4989624;28;20474;-84
2020/12/27 04:26:19;;;;;;;25.50;13.35;;;-1.70;90.30;;;;;;4975152;28;20054;-84
2020/12/27 04:28:45;;;;;;;28.23;13.15;;;-1.70;90.30;;;;;;4989666;28;20030;-84
2020/12/27 04:31:14;;;;;;;23.20;13.18;;;-1.70;90.30;;;;;;4989789;28;20394;-84
2020/12/27 04:33:40;;;;;;;29.95;14.25;;;-1.70;90.30;;;;;;4989410;28;20394;-84
2020/12/27 04:36:06;;;;;;;22.85;12.25;;;-1.70;90.10;;;;;;4989339;28;20050;-84
2020/12/27 04:38:32;;;;;;;28.42;13.35;;;-1.80;90.10;;;;;;4990980;28;20022;-84
2020/12/27 04:41:00;;;;;;;28.77;13.50;;;-1.80;90.30;;;;;;4991615;28;20601;-84
2020/12/27 04:43:26;;;;;;;28.58;13.30;;;-1.80;90.10;;;;;;4988985;28;20027;-84
2020/12/27 04:46:02;;;;;;;30.02;14.20;;;-1.80;90.10;;;;;;4990661;28;20084;-84
2020/12/27 04:48:29;;;;;;;28.85;13.95;;;-1.80;90.10;;;;;;4989597;28;20029;-83
2020/12/27 04:50:56;;;;;;;28.00;14.85;;;-1.80;90.00;;;;;;4989496;28;20035;-84
2020/12/27 04:53:22;;;;;;;31.65;14.95;;;-1.80;90.10;;;;;;4991732;28;20022;-84
2020/12/27 04:55:52;;;;;;;30.15;14.88;;;-1.80;90.10;;;;;;4989938;28;20037;-84
2020/12/27 04:58:18;;;;;;;;;;;-1.80;90.00;;;;;;4989431;28;20018;-83
2020/12/27 05:00:44;;;;;;;30.95;14.55;;;-1.90;90.10;;;;;;4989070;28;20573;-83
2020/12/27 05:03:10;;;;;;;32.88;16.08;;;-1.80;90.10;;;;;;4990164;28;20022;-84
2020/12/27 05:05:36;;;;;;;29.60;15.82;;;-1.80;90.10;;;;;;4973207;28;20113;-84
2020/12/27 05:08:01;;;;;;;36.42;15.80;;;-1.90;90.00;;;;;;4992780;28;20038;-84
2020/12/27 05:10:27;;;;;;;32.40;15.63;;;-1.90;89.80;;;;;;4989504;28;20062;-84
2020/12/27 05:12:54;;;;;;;32.50;15.05;;;-1.80;90.00;;;;;;4988752;28;20023;-84
2020/12/27 05:15:22;;;;;;;36.47;15.73;;;-1.90;89.80;;;;;;4988961;28;20029;-83
2020/12/27 05:17:48;;;;;;;34.85;16.20;;;-1.90;89.90;;;;;;4975449;28;20377;-83
2020/12/27 05:20:14;;;;;;;36.80;17.30;;;-1.90;89.80;;;;;;4987706;28;20034;-84
2020/12/27 05:22:41;;;;;;;35.95;17.02;;;-1.90;90.00;;;;;;4988685;28;20485;-84
2020/12/27 05:25:07;;;;;;;36.15;16.92;;;-1.90;90.20;;;;;;4988880;28;20049;-84
2020/12/27 05:27:40;;;;;;;36.40;17.40;;;-1.90;90.00;;;;;;4988621;28;20033;-85
2020/12/27 05:30:06;;;;;;;36.50;18.77;;;-1.90;90.10;;;;;;4989380;28;20025;-84
2020/12/27 05:32:31;;;;;;;33.58;18.40;;;-1.90;90.00;;;;;;4972789;28;20117;-84
2020/12/27 05:35:00;;;;;;;39.47;18.52;;;-1.90;90.00;;;;;;4989449;28;20050;-84
2020/12/27 05:37:27;;;;;;;39.33;19.85;;;-1.90;90.00;;;;;;4988341;28;20058;-83
2020/12/27 05:39:53;;;;;;;36.35;18.30;;;-1.90;90.00;;;;;;4991081;28;20381;-84
2020/12/27 05:42:25;;;;;;;31.67;17.92;;;-1.90;90.00;;;;;;4988732;28;20040;-83
2020/12/27 05:44:52;;;;;;;36.28;17.95;;;-2.00;90.00;;;;;;4986018;28;20077;-84
2020/12/27 05:47:18;;;;;;;39.40;18.85;;;-2.00;89.70;;;;;;4991178;28;20072;-83
2020/12/27 05:49:45;;;;;;;36.28;19.00;;;-1.90;89.80;;;;;;4989526;28;20026;-84
2020/12/27 05:52:15;;;;;;;33.95;18.05;;;-1.90;89.80;;;;;;4992189;28;20037;-84
2020/12/27 05:54:47;;;;;;;42.00;18.52;;;-2.00;89.60;;;;;;4992625;28;20084;-84
2020/12/27 05:57:15;;;;;;;38.83;19.35;;;-2.00;89.20;;;;;;4992722;28;20029;-84
2020/12/27 05:59:47;;;;;;;39.35;18.40;;;-2.00;89.70;;;;;;4992337;28;20499;-84
2020/12/27 06:02:41;;;;;;;35.60;17.50;;;-2.00;89.70;;;;;;4995846;28;20514;-82
2020/12/27 06:05:10;;;;;;;37.55;18.83;;;-2.00;89.50;;;;;;5016649;28;20019;-85
2020/12/27 06:07:43;;;;;;;38.78;18.80;;;-2.00;89.50;;;;;;5000014;28;20080;-85
2020/12/27 06:10:09;;;;;;;35.28;17.92;;;-2.00;89.40;;;;;;4976541;28;20429;-84
2020/12/27 06:12:58;;;;;;;37.67;18.83;;;-2.00;89.60;;;;;;4992482;28;20026;-84
2020/12/27 06:15:29;;;;;;;38.35;20.10;;;-2.10;89.50;;;;;;4983256;28;20027;-84
2020/12/27 06:17:57;;;;;;;;;;;-2.10;89.60;;;;;;4992463;28;20053;-84
2020/12/27 06:20:23;;;;;;;40.65;18.30;;;-2.00;89.40;;;;;;4994738;28;19930;-84
2020/12/27 06:22:51;;;;;;;32.25;17.88;;;-2.00;89.30;;;;;;4992470;28;20038;-84
2020/12/27 06:25:17;;;;;;;40.78;19.65;;;-2.00;89.30;;;;;;4991507;28;20037;-86
2020/12/27 06:27:43;;;;;;;41.60;18.77;;;-2.00;89.20;;;;;;4993684;28;20061;-86
2020/12/27 06:30:19;;;;;;;36.85;18.40;;;-1.90;89.30;;;;;;4992622;28;20093;-84
2020/12/27 06:33:10;;;;;;;39.53;19.08;;;-1.90;89.10;;;;;;4993034;28;20100;-83
2020/12/27 06:35:37;;;;;;;38.60;19.40;;;-2.00;89.10;;;;;;4992884;28;20169;-84
2020/12/27 06:38:24;;;;;;;42.22;20.45;;;-2.00;89.40;;;;;;4993679;28;20037;-84
2020/12/27 06:41:04;;;;;;;42.42;18.58;;;-2.00;88.80;;;;;;4994292;28;20039;-85
2020/12/27 06:43:43;;;;;;;36.78;18.13;;;-2.00;88.90;;;;;;4993742;28;20026;-85
2020/12/27 06:46:26;;;;;;;34.40;18.05;;;-1.90;89.00;;;;;;4991616;28;20072;-85
2020/12/27 06:49:11;;;;;;;38.03;17.88;;;-1.90;88.90;;;;;;4990822;28;20030;-84
2020/12/27 06:51:42;;;;;;;34.95;16.83;;;-1.90;88.60;;;;;;4993345;28;20046;-84
2020/12/27 06:54:09;;;;;;;35.05;17.90;;;-1.90;88.70;;;;;;4991008;28;20117;-85
2020/12/27 06:56:43;;;;;;;39.08;18.00;;;-1.90;88.90;;;;;;4993632;28;20030;-84
2020/12/27 06:59:09;;;;;;;31.85;16.05;;;-1.90;88.80;;;;;;4993731;28;20505;-83
2020/12/27 07:01:35;;;;;;;37.20;18.15;;;-1.90;88.60;;;;;;4990956;28;20046;-84
2020/12/27 07:04:19;;;;;;;33.03;17.13;;;-1.90;88.80;;;;;;4992411;28;20430;-83
2020/12/27 07:06:46;;;;;;;32.65;16.80;;;-1.80;88.60;;;;;;4989856;28;20026;-85
2020/12/27 07:09:25;;;;;;;29.35;15.95;;;-1.80;88.80;;;;;;4993563;28;20175;-84
2020/12/27 07:12:11;;;;;;;30.15;16.05;;;-1.80;88.10;;;;;;4976787;28;20045;-85
2020/12/27 07:14:43;;;;;;;33.72;15.63;;;-1.70;87.90;;;;;;4993957;28;20014;-82
2020/12/27 07:17:10;;;;;;;29.92;15.90;;;-1.60;88.00;;;;;;4994433;28;20065;-84
2020/12/27 07:19:38;;;;;;;31.17;15.95;;;-1.60;87.30;;;;;;4992708;28;20054;-83
2020/12/27 07:22:05;;;;;;;29.75;15.27;;;-1.60;87.30;;;;;;4991026;28;20430;-84
2020/12/27 07:24:34;;;;;;;30.63;16.60;;;-1.60;87.40;;;;;;4990440;28;20065;-85
2020/12/27 07:27:03;;;;;;;31.30;15.70;;;-1.50;87.20;;;;;;4991960;28;20026;-85
2020/12/27 07:29:29;;;;;;;31.73;15.30;;;-1.50;87.20;;;;;;4993274;28;20014;-84
2020/12/27 07:31:57;;;;;;;32.95;16.05;;;-1.40;86.80;;;;;;4992216;28;20490;-85
2020/12/27 07:34:25;;;;;;;33.75;16.98;;;-1.40;86.80;;;;;;4991008;28;20038;-84
2020/12/27 07:37:02;;;;;;;33.83;17.15;;;-1.30;86.70;;;;;;4991373;28;20045;-85
2020/12/27 07:39:52;;;;;;;33.78;17.83;;;-1.30;86.80;;;;;;4990275;28;20121;-85
2020/12/27 07:42:33;;;;;;;32.03;18.13;;;-1.20;86.50;;;;;;4990572;28;20109;-85
2020/12/27 07:45:01;;;;;;;36.00;17.30;;;-1.20;86.60;;;;;;4990570;28;20109;-84
2020/12/27 07:47:28;;;;;;;33.58;16.85;;;-1.20;86.20;;;;;;4992654;28;20118;-84
2020/12/27 07:50:08;;;;;;;36.97;17.70;;;-1.10;86.30;;;;;;4992792;28;20026;-84
2020/12/27 07:52:46;;;;;;;36.40;17.58;;;-1.00;85.70;;;;;;4991598;28;20023;-84
2020/12/27 07:55:37;;;;;;;35.92;16.60;;;-1.00;86.00;;;;;;4974128;28;20034;-84
2020/12/27 07:58:07;;;;;;;33.63;16.05;;;-1.00;85.70;;;;;;4990563;28;20359;-86
2020/12/27 08:00:39;;;;;;;37.28;18.30;;;-0.90;85.30;;;;;;4982834;28;20100;-84
2020/12/27 08:03:09;;;;;;;35.85;19.38;;;-0.90;85.30;;;;;;4990374;28;20434;-85
2020/12/27 08:05:36;;;;;;;40.33;19.75;;;-0.80;85.10;;;;;;4990611;28;20042;-84
2020/12/27 08:08:06;;;;;;;38.30;18.33;;;-0.80;84.90;;;;;;4991543;28;20026;-85
2020/12/27 08:10:32;;;;;;;40.78;19.50;;;-0.80;85.40;;;;;;4990452;28;20026;-84
2020/12/27 08:13:00;;;;;;;37.28;19.90;;;-0.70;85.00;;;;;;4989713;28;20076;-84
2020/12/27 08:15:28;;;;;;;42.50;21.20;;;-0.60;84.80;;;;;;4989585;28;20026;-85
2020/12/27 08:18:10;;;;;;;37.92;18.98;;;-0.60;84.70;;;;;;4974408;28;20022;-83
2020/12/27 08:20:50;;;;;;;40.67;19.83;;;-0.50;84.20;;;;;;4991195;28;20089;-84
2020/12/27 08:23:16;;;;;;;40.10;20.10;;;-0.40;84.10;;;;;;4990946;28;20030;-85
2020/12/27 08:25:42;;;;;;;35.97;19.05;;;-0.40;83.80;;;;;;4991791;28;20073;-86
2020/12/27 08:28:14;;;;;;;39.05;20.23;;;-0.30;83.40;;;;;;4985789;28;20026;-83
2020/12/27 08:30:40;;;;;;;40.95;20.35;;;-0.30;83.00;;;;;;4988995;28;20085;-84
2020/12/27 08:33:07;;;;;;;38.67;18.77;;;-0.20;83.00;;;;;;4991201;28;20026;-84
2020/12/27 08:35:34;;;;;;;35.75;19.65;;;-0.20;82.70;;;;;;4991251;28;20174;-85
2020/12/27 08:38:16;;;;;;;40.55;20.17;;;-0.10;82.70;;;;;;4991493;28;20520;-84
2020/12/27 08:40:45;;;;;;;37.40;20.50;;;-0.10;82.30;;;;;;4990845;28;20389;-84
2020/12/27 08:43:24;;;;;;;38.10;19.73;;;0.00;82.10;;;;;;4989700;28;20033;-86
2020/12/27 08:45:56;;;;;;;31.23;15.50;;;0.00;82.40;;;;;;4990690;28;20019;-85
2020/12/27 08:48:33;;;;;;;34.55;16.88;;;0.00;81.90;;;;;;4990649;28;20690;-84
2020/12/27 08:51:02;;;;;;;36.53;19.08;;;0.00;81.30;;;;;;4973832;28;20047;-85
2020/12/27 08:53:31;;;;;;;35.85;18.48;;;0.00;81.90;;;;;;4991631;28;20030;-85
2020/12/27 08:56:00;;;;;;;33.80;18.17;;;0.10;82.00;;;;;;4987953;28;20395;-86
2020/12/27 08:58:26;;;;;;;40.50;18.67;;;0.10;81.70;;;;;;4990101;28;20390;-84
2020/12/27 09:00:52;;;;;;;37.08;18.10;;;0.20;81.80;;;;;;4971060;28;20026;-86
2020/12/27 09:03:19;;;;;;;37.10;19.25;;;0.20;81.50;;;;;;4989697;28;20076;-84
2020/12/27 09:05:48;;;;;;;34.72;18.15;;;0.30;81.40;;;;;;4989301;28;20032;-84
2020/12/27 09:08:18;;;;;;;36.58;18.38;;;0.40;81.00;;;;;;4988956;28;20054;-85
2020/12/27 09:10:44;;;;;;;38.92;18.63;;;0.50;81.20;;;;;;4990517;28;20035;-86
2020/12/27 09:13:14;;;;;;;41.78;19.67;;;0.50;80.80;;;;;;4988778;28;20029;-85
2020/12/27 09:15:49;;;;;;;30.05;17.63;;;0.50;80.90;;;;;;4988178;28;20065;-85
2020/12/27 09:18:28;;;;;;;31.02;18.23;;;0.60;80.20;;;;;;4989055;28;20034;-85
2020/12/27 09:20:59;;;;;;;35.38;17.73;;;0.60;79.50;;;;;;4985660;28;20029;-85
2020/12/27 09:23:25;;;;;;;35.42;18.85;;;0.70;79.30;;;;;;4991177;28;20029;-85
2020/12/27 09:26:10;;;;;;;37.63;18.42;;;0.70;80.20;;;;;;4995242;28;20110;-84
2020/12/27 09:28:38;;;;;;;33.88;18.33;;;0.80;80.40;;;;;;4991813;28;20022;-85
2020/12/27 09:31:09;;;;;;;32.95;17.92;;;0.80;79.60;;;;;;4994477;28;20022;-86
2020/12/27 09:33:38;;;;;;;38.72;20.88;;;0.80;78.80;;;;;;4977221;28;20157;-86
2020/12/27 09:36:06;;;;;;;31.08;16.85;;;0.90;78.80;;;;;;4977324;28;20100;-85
2020/12/27 09:38:40;;;;;;;28.95;15.65;;;1.00;78.00;;;;;;4976896;28;20015;-86
2020/12/27 09:41:20;;;;;;;30.27;17.00;;;1.00;76.50;;;;;;4995506;28;20030;-85
2020/12/27 09:43:49;;;;;;;31.42;16.50;;;1.00;77.00;;;;;;4992900;28;20034;-86
2020/12/27 09:46:46;;;;;;;30.38;16.15;;;1.00;76.90;;;;;;4991974;28;20034;-85
2020/12/27 09:49:18;;;;;;;31.48;16.10;;;1.00;76.40;;;;;;4992010;28;20030;-84
2020/12/27 09:51:44;;;;;;;30.25;15.25;;;1.00;76.60;;;;;;4974006;28;20482;-85
2020/12/27 09:54:10;;;;;;;34.90;16.88;;;1.10;76.70;;;;;;4992258;28;20019;-85
2020/12/27 09:56:43;;;;;;;34.60;16.73;;;1.10;76.50;;;;;;4993075;28;20117;-84
2020/12/27 09:59:08;;;;;;;31.33;16.40;;;1.10;75.70;;;;;;4989419;28;20019;-85
2020/12/27 10:01:34;;;;;;;33.78;16.23;;;1.20;75.40;;;;;;4991777;28;20065;-85
2020/12/27 10:04:00;;;;;;;24.42;13.15;;;1.20;75.00;;;;;;4992790;28;20191;-85
2020/12/27 10:06:26;;;;;;;32.63;15.52;;;1.20;75.20;;;;;;4991285;28;20226;-85
2020/12/27 10:08:51;;;;;;;27.67;15.45;;;1.20;75.80;;;;;;4991021;28;20114;-85
2020/12/27 10:11:17;;;;;;;29.00;15.23;;;1.30;75.00;;;;;;4993056;28;20493;-85
2020/12/27 10:13:42;;;;;;;34.03;15.32;;;1.30;74.50;;;;;;4992836;28;21481;-85
2020/12/27 10:16:08;;;;;;;31.27;15.38;;;1.30;74.80;;;;;;4974607;28;20022;-86
2020/12/27 10:18:34;;;;;;;28.17;15.27;;;1.40;75.50;;;;;;4992005;28;20018;-86
2020/12/27 10:20:59;;;;;;;30.85;15.93;;;1.40;74.70;;;;;;4975428;28;20421;-85
2020/12/27 10:23:25;;;;;;;30.88;15.50;;;1.40;74.60;;;;;;4992576;28;20478;-84
2020/12/27 10:25:50;;;;;;;28.02;14.73;;;1.40;74.50;;;;;;4991029;28;20019;-85
2020/12/27 10:28:16;;;;;;;31.27;14.88;;;1.50;74.50;;;;;;4989912;28;20034;-86
2020/12/27 10:30:42;;;;;;;27.88;14.93;;;1.50;74.00;;;;;;4990659;28;20406;-87
2020/12/27 10:33:09;;;;;;;26.27;13.05;;;1.50;74.50;;;;;;4988688;28;20041;-87
2020/12/27 10:35:35;;;;;;;24.65;14.15;;;1.50;73.80;;;;;;4996237;28;20050;-85
2020/12/27 10:38:01;;;;;;;26.90;13.45;;;1.50;73.70;;;;;;4993959;28;20026;-85
2020/12/27 10:40:26;;;;;;;24.35;12.70;;;1.60;74.00;;;;;;4991722;28;20026;-87
2020/12/27 10:42:52;;;;;;;24.70;13.20;;;1.60;73.70;;;;;;4992104;28;20065;-86
2020/12/27 10:45:18;;;;;;;25.65;12.65;;;1.50;73.60;;;;;;4991653;28;20565;-85
2020/12/27 10:47:43;;;;;;;26.98;12.65;;;1.50;74.00;;;;;;4986855;28;20069;-86
2020/12/27 10:50:09;;;;;;;23.88;12.82;;;1.60;73.80;;;;;;4989873;28;20115;-86
2020/12/27 10:52:34;;;;;;;25.48;13.45;;;1.60;74.00;;;;;;4987222;28;20071;-90
2020/12/27 10:55:00;;;;;;;24.73;12.00;;;1.70;73.20;;;;;;5003634;28;20478;-85
2020/12/27 10:57:26;;;;;;;21.35;12.05;;;1.70;72.60;;;;;;4984704;28;20402;-85
2020/12/27 10:59:51;;;;;;;25.50;11.73;;;1.70;72.90;;;;;;4977010;28;20409;-86
2020/12/27 11:02:17;;;;;;;22.95;11.93;;;1.70;72.60;;;;;;4993755;28;20405;-85
2020/12/27 11:04:42;;;;;;;22.58;11.82;;;1.80;73.00;;;;;;4974217;28;20105;-86
2020/12/27 11:07:08;;;;;;;23.75;12.90;;;1.80;72.00;;;;;;4993191;28;20036;-86
2020/12/27 11:09:34;;;;;;;22.67;11.00;;;1.80;72.60;;;;;;4991779;28;20493;-84
2020/12/27 11:11:59;;;;;;;22.50;11.95;;;1.80;72.50;;;;;;4992443;28;20041;-87
2020/12/27 11:14:25;;;;;;;20.67;10.05;;;1.90;72.10;;;;;;4993745;28;20497;-86
2020/12/27 11:16:51;;;;;;;22.90;11.07;;;1.90;71.40;;;;;;4992020;28;20493;-86
2020/12/27 11:19:16;;;;;;;21.88;11.05;;;1.90;71.70;;;;;;4991585;28;20037;-85
2020/12/27 11:21:46;;;;;;;22.67;11.73;;;2.00;72.10;;;;;;4992981;28;20038;-86
2020/12/27 11:24:12;;;;;;;20.20;10.95;;;2.00;71.00;;;;;;4990991;28;20033;-85
2020/12/27 11:26:37;;;;;;;17.92;9.82;;;2.00;70.50;;;;;;4991954;28;20038;-85
2020/12/27 11:29:03;;;;;;;23.00;11.38;;;2.10;70.40;;;;;;4993958;28;20030;-85
2020/12/27 11:31:29;;;;;;;18.85;9.93;;;2.00;70.80;;;;;;4991071;28;20030;-86
2020/12/27 11:33:54;;;;;;;20.30;10.55;;;2.10;70.80;;;;;;4992051;28;20493;-84
2020/12/27 11:36:20;;;;;;;18.83;9.80;;;2.10;70.90;;;;;;4992957;28;20043;-85
2020/12/27 11:38:45;;;;;;;18.63;10.00;;;2.10;70.80;;;;;;4989642;28;20093;-84
2020/12/27 11:41:12;;;;;;;16.60;9.13;;;2.10;70.00;;;;;;4993670;28;20042;-85
2020/12/27 11:43:38;;;;;;;17.27;8.55;;;2.10;69.60;;;;;;4991668;28;20027;-85
2020/12/27 11:46:04;;;;;;;17.15;9.52;;;2.10;69.90;;;;;;4990879;28;20077;-85
2020/12/27 11:48:29;;;;;;;16.63;9.10;;;2.20;69.40;;;;;;4975395;28;20030;-85
2020/12/27 11:50:55;;;;;;;18.63;9.50;;;2.20;69.60;;;;;;5005253;28;20026;-85
2020/12/27 11:53:21;;;;;;;15.52;8.52;;;2.30;68.90;;;;;;4993177;28;20195;-84
2020/12/27 11:55:47;;;;;;;17.60;9.82;;;2.30;68.60;;;;;;4987984;28;20025;-84
2020/12/27 11:58:12;;;;;;;18.02;9.00;;;2.30;68.30;;;;;;4989167;28;20035;-85
2020/12/27 12:00:38;;;;;;;16.80;8.50;;;2.30;68.50;;;;;;4985516;28;20389;-85
2020/12/27 12:03:04;;;;;;;17.88;9.20;;;2.40;68.20;;;;;;4990773;28;20027;-84
2020/12/27 12:05:29;;;;;;;17.83;8.77;;;2.30;67.80;;;;;;4992560;28;20425;-85
2020/12/27 12:07:55;;;;;;;18.30;8.80;;;2.40;68.50;;;;;;4992284;28;20041;-84
2020/12/27 12:10:21;;;;;;;15.88;8.15;;;2.40;68.30;;;;;;4990460;28;20026;-84
2020/12/27 12:12:46;;;;;;;16.45;8.10;;;2.40;67.60;;;;;;4990075;28;20019;-84
2020/12/27 12:15:12;;;;;;;16.33;8.25;;;2.40;67.80;;;;;;4992078;28;20112;-84
2020/12/27 12:17:38;;;;;;;14.95;8.32;;;2.40;68.00;;;;;;4973746;28;20053;-84
2020/12/27 12:20:03;;;;;;;13.85;7.78;;;2.40;67.60;;;;;;4975093;28;20049;-85
2020/12/27 12:22:29;;;;;;;16.05;8.02;;;2.40;67.90;;;;;;4990794;28;20049;-84
2020/12/27 12:24:55;;;;;;;20.65;8.75;;;2.30;67.40;;;;;;4992076;28;20019;-85
2020/12/27 12:27:20;;;;;;;16.77;7.82;;;2.40;67.30;;;;;;4990445;28;20072;-84
2020/12/27 12:29:46;;;;;;;14.20;8.38;;;2.30;68.00;;;;;;4991604;28;20026;-85
2020/12/27 12:32:11;;;;;;;14.48;7.80;;;2.40;67.40;;;;;;4993746;28;20022;-85
2020/12/27 12:34:37;;;;;;;15.55;8.10;;;2.40;67.40;;;;;;4990236;28;20453;-84
2020/12/27 12:37:03;;;;;;;13.70;7.15;;;2.40;67.30;;;;;;4990739;28;20082;-85